Time;durP1;ratioP1;P1;durP2;ratioP2;P2;SDS_P1;SDS_P2;PMS_P1;PMS_P2;Temp;Humidity;BMP_temperature;BMP_pressure;BME280_temperature;BME280_humidity;BME280_pressure;Samples;Min_cycle;Max_cycle;Signal;HPM_P1;HPM_P2
2022/06/29 00:03:16;;;;;;;4.55;2.58;;;;;;;;;;6205472;28;20225;-73
2022/06/29 00:06:37;;;;;;;4.32;2.17;;;;;;;;;;6195066;28;20233;-72
2022/06/29 00:09:58;;;;;;;2.00;1.90;;;;;;;;;;6207019;28;20233;-71
2022/06/29 00:13:21;;;;;;;2.42;2.10;;;;;;;;;;6205339;28;20228;-69
2022/06/29 00:16:41;;;;;;;2.75;1.98;;;;;;;;;;6202782;28;20794;-72
2022/06/29 00:20:04;;;;;;;3.70;3.30;;;;;;;;;;6201601;28;20615;-71
2022/06/29 00:23:25;;;;;;;2.80;2.60;;;;;;;;;;6207142;28;20233;-71
2022/06/29 00:26:45;;;;;;;2.60;2.40;;;;;;;;;;6205896;28;20260;-72
2022/06/29 00:30:09;;;;;;;3.42;1.83;;;;;;;;;;6197090;28;20249;-71
2022/06/29 00:33:30;;;;;;;2.25;2.05;;;;;;;;;;6202360;28;20591;-72
2022/06/29 00:36:50;;;;;;;1.88;1.77;;;;;;;;;;6201022;28;20251;-71
2022/06/29 00:40:12;;;;;;;2.05;1.92;;;;;;;;;;6206092;28;20237;-72
2022/06/29 00:43:39;;;;;;;2.20;2.00;;;;;;;;;;6200376;28;20236;-71
2022/06/29 00:47:02;;;;;;;2.95;1.90;;;;;;;;;;6200943;28;20221;-73
2022/06/29 00:50:24;;;;;;;4.15;1.90;;;;;;;;;;6204237;28;20228;-72
2022/06/29 00:53:45;;;;;;;2.10;1.90;;;;;;;;;;6209298;28;20221;-72
2022/06/29 00:57:07;;;;;;;2.40;2.20;;;;;;;;;;6206263;28;20594;-72
2022/06/29 01:00:28;;;;;;;2.30;2.10;;;;;;;;;;6201329;28;20491;-72
2022/06/29 01:03:51;;;;;;;4.10;3.80;;;;;;;;;;6206184;28;20225;-72
2022/06/29 01:07:12;;;;;;;4.38;2.83;;;;;;;;;;6195575;28;20238;-72
2022/06/29 01:10:32;;;;;;;2.35;2.17;;;;;;;;;;6205723;28;20241;-72
2022/06/29 01:13:53;;;;;;;2.33;1.85;;;;;;;;;;6210823;28;20229;-72
2022/06/29 01:17:14;;;;;;;1.92;1.70;;;;;;;;;;6206479;28;20838;-72
2022/06/29 01:20:36;;;;;;;2.05;1.83;;;;;;;;;;6197133;28;20233;-71
2022/06/29 01:23:58;;;;;;;1.60;1.50;;;;;;;;;;6211920;28;20773;-72
2022/06/29 01:27:19;;;;;;;2.00;1.90;;;;;;;;;;6210587;28;20221;-72
2022/06/29 01:30:40;;;;;;;2.00;1.85;;;;;;;;;;6207307;28;20590;-71
2022/06/29 01:34:01;;;;;;;3.35;2.50;;;;;;;;;;6209071;28;20229;-71
2022/06/29 01:37:22;;;;;;;1.50;1.48;;;;;;;;;;6209664;28;20528;-72
2022/06/29 01:40:44;;;;;;;1.90;1.80;;;;;;;;;;6211122;28;20328;-72
2022/06/29 01:44:04;;;;;;;1.98;1.75;;;;;;;;;;6189034;28;20249;-71
2022/06/29 01:47:25;;;;;;;1.92;1.73;;;;;;;;;;6205003;28;20271;-72
2022/06/29 01:50:46;;;;;;;1.65;1.55;;;;;;;;;;6208488;28;20612;-71
2022/06/29 01:54:07;;;;;;;1.67;1.58;;;;;;;;;;6209703;28;20615;-71
2022/06/29 01:57:28;;;;;;;3.55;2.13;;;;;;;;;;6201916;28;20221;-72
2022/06/29 02:00:49;;;;;;;1.80;1.70;;;;;;;;;;6203923;28;20330;-72
2022/06/29 02:04:09;;;;;;;2.17;1.98;;;;;;;;;;6205351;28;20225;-71
2022/06/29 02:07:30;;;;;;;3.45;2.30;;;;;;;;;;6210747;28;20237;-72
2022/06/29 02:10:51;;;;;;;2.10;1.48;;;;;;;;;;6208129;28;20651;-73
2022/06/29 02:14:14;;;;;;;1.70;1.60;;;;;;;;;;6208480;28;20233;-71
2022/06/29 02:17:34;;;;;;;2.13;1.63;;;;;;;;;;6204593;28;21095;-72
2022/06/29 02:20:54;;;;;;;2.20;2.00;;;;;;;;;;6201554;28;20225;-71
2022/06/29 02:24:15;;;;;;;1.75;1.65;;;;;;;;;;6207587;28;20264;-70
2022/06/29 02:27:39;;;;;;;1.65;1.48;;;;;;;;;;6205805;28;20253;-71
2022/06/29 02:34:44;;;;;;;2.85;2.65;;;;;;;;;;6206053;28;20224;-72
2022/06/29 02:38:05;;;;;;;2.22;1.83;;;;;;;;;;6200655;28;20233;-71
2022/06/29 02:41:26;;;;;;;5.13;1.85;;;;;;;;;;6206949;28;20236;-71
2022/06/29 02:44:46;;;;;;;2.50;2.30;;;;;;;;;;6199228;28;20213;-71
2022/06/29 02:48:10;;;;;;;1.90;1.80;;;;;;;;;;6204108;28;20600;-71
2022/06/29 02:51:30;;;;;;;3.58;2.65;;;;;;;;;;6205078;28;20228;-72
2022/06/29 02:54:51;;;;;;;2.80;2.60;;;;;;;;;;6203912;28;20257;-70
2022/06/29 02:58:12;;;;;;;2.33;2.13;;;;;;;;;;6203251;28;20233;-72
2022/06/29 03:01:32;;;;;;;2.47;2.20;;;;;;;;;;6196555;28;20232;-71
2022/06/29 03:04:54;;;;;;;2.47;2.25;;;;;;;;;;6203854;28;20505;-71
2022/06/29 03:08:15;;;;;;;2.35;2.15;;;;;;;;;;6207274;28;20248;-71
2022/06/29 03:11:35;;;;;;;3.03;2.08;;;;;;;;;;6207572;28;20682;-70
2022/06/29 03:14:56;;;;;;;2.70;1.92;;;;;;;;;;6203777;28;20255;-69
2022/06/29 03:18:16;;;;;;;3.47;3.17;;;;;;;;;;6201816;28;20258;-70
2022/06/29 03:21:38;;;;;;;2.50;2.35;;;;;;;;;;6203489;28;20225;-70
2022/06/29 03:24:59;;;;;;;2.58;2.38;;;;;;;;;;6204162;28;20229;-70
2022/06/29 03:28:19;;;;;;;2.80;2.60;;;;;;;;;;6204889;28;20512;-70
2022/06/29 03:31:40;;;;;;;3.78;2.70;;;;;;;;;;6201619;28;20229;-70
2022/06/29 03:35:01;;;;;;;3.10;2.80;;;;;;;;;;6207224;28;20502;-71
2022/06/29 03:38:23;;;;;;;3.60;3.30;;;;;;;;;;6205842;28;20252;-70
2022/06/29 03:41:43;;;;;;;3.03;2.83;;;;;;;;;;6202301;28;20229;-71
2022/06/29 03:45:04;;;;;;;2.55;2.10;;;;;;;;;;6205618;28;20229;-70
2022/06/29 03:48:25;;;;;;;2.95;2.72;;;;;;;;;;6201979;28;20256;-71
2022/06/29 03:51:45;;;;;;;4.90;2.90;;;;;;;;;;6203949;28;20233;-71
2022/06/29 03:55:08;;;;;;;3.90;2.72;;;;;;;;;;6201609;28;20225;-70
2022/06/29 03:58:28;;;;;;;2.25;1.92;;;;;;;;;;6203708;28;20232;-71
2022/06/29 04:01:49;;;;;;;1.73;1.58;;;;;;;;;;6196395;28;20229;-72
2022/06/29 04:05:10;;;;;;;2.67;1.73;;;;;;;;;;6204971;28;20249;-70
2022/06/29 04:08:31;;;;;;;2.60;2.40;;;;;;;;;;6202734;28;20701;-71
2022/06/29 04:11:53;;;;;;;2.42;2.22;;;;;;;;;;6210091;28;20236;-71
2022/06/29 04:15:14;;;;;;;5.03;3.50;;;;;;;;;;6205636;28;20241;-71
2022/06/29 04:18:35;;;;;;;2.55;2.35;;;;;;;;;;6199767;28;20221;-71
2022/06/29 04:21:55;;;;;;;3.03;2.55;;;;;;;;;;6203846;28;20233;-70
2022/06/29 04:25:16;;;;;;;2.75;2.55;;;;;;;;;;6207454;28;20233;-70
2022/06/29 04:28:38;;;;;;;3.83;2.80;;;;;;;;;;6205041;28;20221;-71
2022/06/29 04:31:59;;;;;;;4.03;3.13;;;;;;;;;;6204284;28;20225;-71
2022/06/29 04:35:20;;;;;;;2.63;2.20;;;;;;;;;;6203755;28;20315;-71
2022/06/29 04:38:41;;;;;;;2.63;2.42;;;;;;;;;;6206358;28;20221;-71
2022/06/29 04:42:02;;;;;;;1.90;1.75;;;;;;;;;;6207003;28;20236;-71
2022/06/29 04:49:02;;;;;;;2.75;1.52;;;;;;;;;;6205866;28;23118;-70
2022/06/29 04:52:24;;;;;;;2.83;1.80;;;;;;;;;;6206417;28;24603;-70
2022/06/29 04:55:44;;;;;;;2.22;1.80;;;;;;;;;;6207463;28;20816;-70
2022/06/29 04:59:05;;;;;;;3.55;2.20;;;;;;;;;;6199037;28;20229;-71
2022/06/29 05:02:27;;;;;;;2.30;1.70;;;;;;;;;;6196035;28;20608;-70
2022/06/29 05:05:48;;;;;;;2.13;1.90;;;;;;;;;;6189321;28;20739;-71
2022/06/29 05:09:08;;;;;;;2.00;1.90;;;;;;;;;;6191186;28;20523;-70
2022/06/29 05:12:29;;;;;;;2.47;1.88;;;;;;;;;;6196210;28;20228;-69
2022/06/29 05:15:50;;;;;;;1.35;1.25;;;;;;;;;;6199871;28;20509;-72
2022/06/29 05:19:11;;;;;;;1.98;1.60;;;;;;;;;;6198306;28;20319;-72
2022/06/29 05:22:32;;;;;;;1.55;1.40;;;;;;;;;;6203163;28;20229;-73
2022/06/29 05:25:53;;;;;;;2.60;2.20;;;;;;;;;;6208735;28;20233;-69
2022/06/29 05:29:14;;;;;;;2.97;1.95;;;;;;;;;;6212088;28;20237;-70
2022/06/29 05:32:35;;;;;;;2.33;1.75;;;;;;;;;;6206693;28;20229;-69
2022/06/29 05:35:58;;;;;;;2.58;1.70;;;;;;;;;;6210450;28;20242;-70
2022/06/29 05:39:19;;;;;;;4.97;2.63;;;;;;;;;;6202840;28;20695;-70
2022/06/29 05:42:39;;;;;;;2.53;1.70;;;;;;;;;;6193158;28;20501;-75
2022/06/29 05:46:00;;;;;;;2.10;1.55;;;;;;;;;;6196684;28;20257;-75
2022/06/29 05:49:21;;;;;;;2.53;1.60;;;;;;;;;;6195826;28;20686;-75
2022/06/29 05:52:43;;;;;;;2.58;1.27;;;;;;;;;;6195619;28;20522;-73
2022/06/29 05:56:03;;;;;;;6.75;1.80;;;;;;;;;;6196639;28;20260;-73
2022/06/29 05:59:24;;;;;;;1.45;1.30;;;;;;;;;;6196807;28;20234;-75
2022/06/29 06:02:45;;;;;;;2.30;1.67;;;;;;;;;;6198772;28;20225;-73
2022/06/29 06:06:06;;;;;;;2.03;1.05;;;;;;;;;;6198944;28;20344;-74
2022/06/29 06:09:28;;;;;;;1.30;1.20;;;;;;;;;;6199061;28;20502;-73
2022/06/29 06:12:48;;;;;;;1.52;1.42;;;;;;;;;;6201482;28;20233;-74
2022/06/29 06:16:10;;;;;;;1.42;1.20;;;;;;;;;;6198160;28;20365;-74
2022/06/29 06:19:30;;;;;;;2.22;1.65;;;;;;;;;;6207226;28;20233;-74
2022/06/29 06:22:50;;;;;;;2.13;1.10;;;;;;;;;;6204642;28;20229;-74
2022/06/29 06:26:12;;;;;;;1.83;1.50;;;;;;;;;;6205493;28;20221;-73
2022/06/29 06:29:33;;;;;;;1.63;1.42;;;;;;;;;;6198968;28;20665;-73
2022/06/29 06:32:54;;;;;;;1.63;1.33;;;;;;;;;;6204541;28;20802;-75
2022/06/29 06:36:14;;;;;;;2.47;1.48;;;;;;;;;;6202471;28;20793;-75
2022/06/29 06:39:34;;;;;;;1.90;1.40;;;;;;;;;;6201732;28;20241;-74
2022/06/29 06:42:56;;;;;;;3.58;2.25;;;;;;;;;;6205576;28;20225;-75
2022/06/29 06:46:17;;;;;;;2.13;1.50;;;;;;;;;;6212461;28;20296;-75
2022/06/29 06:49:37;;;;;;;5.57;1.30;;;;;;;;;;6209379;28;20590;-75
2022/06/29 06:53:02;;;;;;;2.15;1.20;;;;;;;;;;6211976;28;20336;-75
2022/06/29 06:56:22;;;;;;;2.00;1.80;;;;;;;;;;6214379;28;20222;-74
2022/06/29 06:59:44;;;;;;;2.22;2.08;;;;;;;;;;6195289;28;20229;-74
2022/06/29 07:03:04;;;;;;;2.95;2.42;;;;;;;;;;6207031;28;20260;-74
2022/06/29 07:06:25;;;;;;;1.73;1.60;;;;;;;;;;6211990;28;20984;-74
2022/06/29 07:09:45;;;;;;;1.38;1.27;;;;;;;;;;6206811;28;20230;-74
2022/06/29 07:13:06;;;;;;;2.63;1.30;;;;;;;;;;6211681;28;20265;-74
2022/06/29 07:16:29;;;;;;;2.28;1.80;;;;;;;;;;6211549;28;20229;-73
2022/06/29 07:19:50;;;;;;;2.53;1.60;;;;;;;;;;6209110;28;20233;-74
2022/06/29 07:23:11;;;;;;;1.30;1.20;;;;;;;;;;6209029;28;20233;-74
2022/06/29 07:26:31;;;;;;;1.67;1.48;;;;;;;;;;6213073;28;20229;-74
2022/06/29 07:29:52;;;;;;;1.83;1.55;;;;;;;;;;6212264;28;20236;-75
2022/06/29 07:33:14;;;;;;;3.72;1.45;;;;;;;;;;6214820;28;20237;-74
2022/06/29 07:36:35;;;;;;;2.10;1.90;;;;;;;;;;6209696;28;20236;-74
2022/06/29 07:39:55;;;;;;;1.40;1.30;;;;;;;;;;6208480;28;20253;-74
2022/06/29 07:43:16;;;;;;;1.67;1.58;;;;;;;;;;6210634;28;20241;-74
2022/06/29 07:46:36;;;;;;;2.72;1.70;;;;;;;;;;6211190;28;20229;-73
2022/06/29 07:49:59;;;;;;;1.77;1.67;;;;;;;;;;6212491;28;20578;-74
2022/06/29 07:53:19;;;;;;;3.85;1.88;;;;;;;;;;6211361;28;20304;-74
2022/06/29 07:56:40;;;;;;;1.92;1.73;;;;;;;;;;6211933;28;20233;-74
2022/06/29 08:00:00;;;;;;;2.20;2.00;;;;;;;;;;6211648;28;20257;-73
2022/06/29 08:03:21;;;;;;;2.22;1.67;;;;;;;;;;6208112;28;20229;-73
2022/06/29 08:06:43;;;;;;;2.67;1.70;;;;;;;;;;6208494;28;20495;-73
2022/06/29 08:10:05;;;;;;;2.08;1.98;;;;;;;;;;6212353;28;20233;-74
2022/06/29 08:13:25;;;;;;;1.95;1.60;;;;;;;;;;6214121;28;20225;-75
2022/06/29 08:16:46;;;;;;;2.08;1.77;;;;;;;;;;6212080;28;20630;-74
2022/06/29 08:20:07;;;;;;;4.40;1.92;;;;;;;;;;6202327;28;20225;-74
2022/06/29 08:23:29;;;;;;;2.25;1.92;;;;;;;;;;6211997;28;20221;-74
2022/06/29 08:26:49;;;;;;;2.00;1.50;;;;;;;;;;6209539;28;20269;-74
2022/06/29 08:30:10;;;;;;;3.42;3.03;;;;;;;;;;6207862;28;20237;-74
2022/06/29 08:33:31;;;;;;;2.65;1.58;;;;;;;;;;6206804;28;20738;-74
2022/06/29 08:36:52;;;;;;;2.00;1.90;;;;;;;;;;6212277;28;20335;-73
2022/06/29 08:40:15;;;;;;;4.38;2.58;;;;;;;;;;6209677;28;20268;-74
2022/06/29 08:43:35;;;;;;;3.58;1.85;;;;;;;;;;6211583;28;20225;-73
2022/06/29 08:46:58;;;;;;;2.05;1.70;;;;;;;;;;6210466;28;20538;-73
2022/06/29 08:50:19;;;;;;;3.17;1.60;;;;;;;;;;6208973;28;20487;-73
2022/06/29 08:53:41;;;;;;;4.30;2.08;;;;;;;;;;6209393;28;20229;-73
2022/06/29 08:57:04;;;;;;;2.05;1.92;;;;;;;;;;6210164;28;20659;-73
2022/06/29 09:00:25;;;;;;;2.33;1.75;;;;;;;;;;6209606;28;20237;-73
2022/06/29 09:03:45;;;;;;;5.68;2.20;;;;;;;;;;6209209;28;20525;-74
2022/06/29 09:07:06;;;;;;;2.10;1.90;;;;;;;;;;6208824;28;20233;-73
2022/06/29 09:10:29;;;;;;;2.20;1.92;;;;;;;;;;6210665;28;20249;-74
2022/06/29 09:14:07;;;;;;;4.78;2.30;;;;;;;;;;6209206;28;20237;-73
2022/06/29 09:17:30;;;;;;;1.63;1.52;;;;;;;;;;6209807;28;20232;-74
2022/06/29 09:20:53;;;;;;;4.03;2.75;;;;;;;;;;6198934;28;20283;-74
2022/06/29 09:24:17;;;;;;;1.88;1.50;;;;;;;;;;6210874;28;20229;-74
2022/06/29 09:27:38;;;;;;;2.92;2.30;;;;;;;;;;6211223;28;20221;-75
2022/06/29 09:31:00;;;;;;;2.00;1.88;;;;;;;;;;6210410;28;20221;-74
2022/06/29 09:34:21;;;;;;;2.22;1.90;;;;;;;;;;6211672;28;20225;-73
2022/06/29 09:37:42;;;;;;;1.60;1.50;;;;;;;;;;6213866;28;20229;-73
2022/06/29 09:41:04;;;;;;;2.80;1.52;;;;;;;;;;6215206;28;20233;-72
2022/06/29 09:44:24;;;;;;;2.08;1.95;;;;;;;;;;6209938;28;20320;-72
2022/06/29 09:47:46;;;;;;;1.83;1.73;;;;;;;;;;6212806;28;20229;-72
2022/06/29 09:54:47;;;;;;;2.10;2.00;;;;;;;;;;6212422;28;20233;-72
2022/06/29 09:58:08;;;;;;;1.77;1.67;;;;;;;;;;6213913;28;20955;-73
2022/06/29 10:05:17;;;;;;;2.90;2.70;;;;;;;;;;6165560;28;20225;-72
2022/06/29 10:08:38;;;;;;;8.00;2.42;;;;;;;;;;6212728;28;20229;-72
2022/06/29 10:15:46;;;;;;;1.95;1.85;;;;;;;;;;6211820;28;20337;-73
2022/06/29 10:19:15;;;;;;;6.35;2.65;;;;;;;;;;6210380;28;20622;-73
2022/06/29 10:22:37;;;;;;;2.33;1.90;;;;;;;;;;6203430;28;20236;-72
2022/06/29 10:25:58;;;;;;;2.38;2.17;;;;;;;;;;6212099;28;20237;-73
2022/06/29 10:29:32;;;;;;;2.67;2.47;;;;;;;;;;6213586;28;20482;-72
2022/06/29 10:32:52;;;;;;;2.45;1.85;;;;;;;;;;6212544;28;20562;-73
2022/06/29 10:36:17;;;;;;;2.42;1.98;;;;;;;;;;6211913;28;20225;-73
2022/06/29 10:39:55;;;;;;;2.58;2.38;;;;;;;;;;6210055;28;20624;-73
2022/06/29 10:43:20;;;;;;;2.40;2.20;;;;;;;;;;6209375;28;20237;-72
2022/06/29 10:47:00;;;;;;;2.15;1.73;;;;;;;;;;6214337;28;20233;-73
2022/06/29 10:50:22;;;;;;;3.55;2.20;;;;;;;;;;6210430;28;20316;-72
2022/06/29 10:53:42;;;;;;;2.20;2.00;;;;;;;;;;6210654;28;20320;-74
2022/06/29 10:57:05;;;;;;;2.67;2.00;;;;;;;;;;6216173;28;20229;-72
2022/06/29 11:00:26;;;;;;;3.05;2.10;;;;;;;;;;6212617;28;20328;-73
2022/06/29 11:03:46;;;;;;;2.30;1.65;;;;;;;;;;6212152;28;20229;-74
2022/06/29 11:18:15;;;;;;;1.95;1.38;;;;;;;;;;6142745;28;20235;-73
2022/06/29 11:21:36;;;;;;;2.35;2.15;;;;;;;;;;6208666;28;20328;-71
2022/06/29 11:24:58;;;;;;;3.65;2.35;;;;;;;;;;6211398;28;20302;-72
2022/06/29 11:28:19;;;;;;;2.28;1.38;;;;;;;;;;6212742;28;20241;-73
2022/06/29 11:31:41;;;;;;;2.10;1.70;;;;;;;;;;6210687;28;20229;-73
2022/06/29 11:35:01;;;;;;;1.75;1.65;;;;;;;;;;6211130;28;20236;-74
2022/06/29 11:38:26;;;;;;;2.38;1.70;;;;;;;;;;6212011;28;20232;-74
2022/06/29 11:45:35;;;;;;;2.03;1.80;;;;;;;;;;6209515;28;20217;-76
2022/06/29 11:52:36;;;;;;;1.48;1.38;;;;;;;;;;6211772;28;20508;-72
2022/06/29 11:55:57;;;;;;;1.58;1.27;;;;;;;;;;6207033;28;20234;-73
2022/06/29 11:59:18;;;;;;;2.08;1.38;;;;;;;;;;6212632;28;20233;-72
2022/06/29 12:02:39;;;;;;;1.55;1.45;;;;;;;;;;6212403;28;20225;-74
2022/06/29 12:06:02;;;;;;;3.10;2.28;;;;;;;;;;6209253;28;20229;-73
2022/06/29 12:09:23;;;;;;;2.63;1.50;;;;;;;;;;6210087;28;20513;-73
2022/06/29 12:12:44;;;;;;;2.08;1.92;;;;;;;;;;6209468;28;20331;-73
2022/06/29 12:16:04;;;;;;;1.77;1.60;;;;;;;;;;6209843;28;20229;-73
2022/06/29 12:19:25;;;;;;;1.70;1.60;;;;;;;;;;6208870;28;20245;-73
2022/06/29 12:22:47;;;;;;;2.78;1.73;;;;;;;;;;6207218;28;20248;-72
2022/06/29 12:26:08;;;;;;;4.18;1.95;;;;;;;;;;6211813;28;20228;-73
2022/06/29 12:29:29;;;;;;;1.60;1.50;;;;;;;;;;6210684;28;20358;-73
2022/06/29 12:32:50;;;;;;;1.88;1.65;;;;;;;;;;6208407;28;20252;-73
2022/06/29 12:36:10;;;;;;;2.42;1.83;;;;;;;;;;6209094;28;20225;-72
2022/06/29 12:39:32;;;;;;;2.13;1.58;;;;;;;;;;6209379;28;20229;-72
2022/06/29 12:42:53;;;;;;;1.42;1.33;;;;;;;;;;6206487;28;20245;-73
2022/06/29 12:46:14;;;;;;;2.65;1.77;;;;;;;;;;6207835;28;20229;-72
2022/06/29 12:49:34;;;;;;;2.80;2.25;;;;;;;;;;6209388;28;20535;-70
2022/06/29 12:52:55;;;;;;;3.13;2.28;;;;;;;;;;6209810;28;20221;-72
2022/06/29 12:56:17;;;;;;;1.45;1.23;;;;;;;;;;6208618;28;20229;-73
2022/06/29 12:59:37;;;;;;;2.20;1.98;;;;;;;;;;6207223;28;20237;-72
2022/06/29 13:02:58;;;;;;;2.13;1.65;;;;;;;;;;6209968;28;20229;-72
2022/06/29 13:06:19;;;;;;;2.13;1.92;;;;;;;;;;6210599;28;20451;-73
2022/06/29 13:09:39;;;;;;;3.38;3.15;;;;;;;;;;6212382;28;20225;-72
2022/06/29 13:13:01;;;;;;;1.80;1.60;;;;;;;;;;6215559;28;20226;-72
2022/06/29 13:16:22;;;;;;;1.67;1.52;;;;;;;;;;6212823;28;20229;-72
2022/06/29 13:19:43;;;;;;;2.45;1.73;;;;;;;;;;6213498;28;20320;-71
2022/06/29 13:23:03;;;;;;;2.35;1.50;;;;;;;;;;6215650;28;20256;-72
2022/06/29 13:26:24;;;;;;;2.10;1.85;;;;;;;;;;6215800;28;20229;-73
2022/06/29 13:29:47;;;;;;;1.58;1.48;;;;;;;;;;6211685;28;20253;-73
2022/06/29 13:33:08;;;;;;;2.67;1.00;;;;;;;;;;6209804;28;20248;-72
2022/06/29 13:36:28;;;;;;;2.05;1.25;;;;;;;;;;6216343;28;20229;-74
2022/06/29 13:39:49;;;;;;;1.90;1.65;;;;;;;;;;6213746;28;20824;-73
2022/06/29 13:43:10;;;;;;;5.63;1.98;;;;;;;;;;6215964;28;20233;-73
2022/06/29 13:46:32;;;;;;;3.28;3.08;;;;;;;;;;6214025;28;20606;-72
2022/06/29 13:49:52;;;;;;;2.17;1.55;;;;;;;;;;6213227;28;20256;-72
2022/06/29 13:53:13;;;;;;;2.22;1.60;;;;;;;;;;6215421;28;20604;-72
2022/06/29 13:56:34;;;;;;;2.00;1.65;;;;;;;;;;6211415;28;20229;-72
2022/06/29 13:59:55;;;;;;;1.75;1.27;;;;;;;;;;6212144;28;20241;-71
2022/06/29 14:03:18;;;;;;;1.45;1.30;;;;;;;;;;6213025;28;20233;-72
2022/06/29 14:06:38;;;;;;;1.88;1.50;;;;;;;;;;6213898;28;20229;-71
2022/06/29 14:09:59;;;;;;;1.48;1.38;;;;;;;;;;6213195;28;20323;-73
2022/06/29 14:13:19;;;;;;;4.15;1.50;;;;;;;;;;6211594;28;20232;-73
2022/06/29 14:16:40;;;;;;;3.17;1.27;;;;;;;;;;6215331;28;20919;-72
2022/06/29 14:20:02;;;;;;;3.72;1.65;;;;;;;;;;6214188;28;20670;-72
2022/06/29 14:23:23;;;;;;;1.40;1.30;;;;;;;;;;6211628;28;20228;-72
2022/06/29 14:26:43;;;;;;;3.13;2.10;;;;;;;;;;6210959;28;20225;-72
2022/06/29 14:30:04;;;;;;;4.30;1.55;;;;;;;;;;6210812;28;20354;-72
2022/06/29 14:33:25;;;;;;;3.53;1.67;;;;;;;;;;6211605;28;20237;-72
2022/06/29 14:36:47;;;;;;;3.95;1.38;;;;;;;;;;6214273;28;20236;-73
2022/06/29 14:40:09;;;;;;;2.70;1.80;;;;;;;;;;6212514;28;20245;-72
2022/06/29 14:43:29;;;;;;;2.40;1.70;;;;;;;;;;6209683;28;20600;-71
2022/06/29 14:46:50;;;;;;;2.60;1.58;;;;;;;;;;6211848;28;20241;-72
2022/06/29 14:50:11;;;;;;;2.42;1.73;;;;;;;;;;6212353;28;20611;-73
2022/06/29 14:53:33;;;;;;;2.15;1.45;;;;;;;;;;6213162;28;20502;-72
2022/06/29 14:56:54;;;;;;;2.50;1.25;;;;;;;;;;6210540;28;20503;-73
2022/06/29 15:00:15;;;;;;;3.65;2.05;;;;;;;;;;6210437;28;20245;-73
2022/06/29 15:03:35;;;;;;;1.35;1.13;;;;;;;;;;6213082;28;20229;-72
2022/06/29 15:06:56;;;;;;;1.58;1.13;;;;;;;;;;6208514;28;20229;-72
2022/06/29 15:10:18;;;;;;;1.40;1.30;;;;;;;;;;6215463;28;20609;-72
2022/06/29 15:13:38;;;;;;;2.67;1.02;;;;;;;;;;6219437;28;20220;-72
2022/06/29 15:16:59;;;;;;;2.33;1.40;;;;;;;;;;6226988;28;20241;-72
2022/06/29 15:20:20;;;;;;;1.63;1.50;;;;;;;;;;6214375;28;20233;-72
2022/06/29 15:23:40;;;;;;;1.80;1.27;;;;;;;;;;6211897;28;20606;-73
2022/06/29 15:27:03;;;;;;;2.90;1.17;;;;;;;;;;6211309;28;20229;-73
2022/06/29 15:30:23;;;;;;;2.00;1.85;;;;;;;;;;6206896;28;20240;-72
2022/06/29 15:41:01;;;;;;;1.77;1.40;;;;;;;;;;6197565;28;20229;-73
2022/06/29 15:44:23;;;;;;;2.00;1.58;;;;;;;;;;6205319;28;20327;-73
2022/06/29 15:47:43;;;;;;;2.25;1.50;;;;;;;;;;6205108;28;20229;-73
2022/06/29 15:51:04;;;;;;;3.85;1.60;;;;;;;;;;6201239;28;20875;-72
2022/06/29 15:58:02;;;;;;;1.70;1.60;;;;;;;;;;6196888;28;20237;-72
2022/06/29 16:01:24;;;;;;;1.65;1.55;;;;;;;;;;6205035;28;20254;-72
2022/06/29 16:04:45;;;;;;;1.90;1.30;;;;;;;;;;6196988;28;20238;-74
2022/06/29 16:08:05;;;;;;;2.17;1.20;;;;;;;;;;6195132;28;20229;-72
2022/06/29 16:12:06;;;;;;;1.30;1.20;;;;;;;;;;6194301;28;20630;-72
2022/06/29 16:15:08;;;;;;;1.45;1.30;;;;;;;;;;6200168;28;20737;-73
2022/06/29 16:18:30;;;;;;;2.00;1.50;;;;;;;;;;6197334;28;20225;-74
2022/06/29 16:21:50;;;;;;;2.05;1.52;;;;;;;;;;6197585;28;20257;-73
2022/06/29 16:25:11;;;;;;;1.17;1.10;;;;;;;;;;6204604;28;20225;-73
2022/06/29 16:28:31;;;;;;;1.73;1.00;;;;;;;;;;6206817;28;20225;-73
2022/06/29 16:31:52;;;;;;;2.53;1.42;;;;;;;;;;6199059;28;20233;-73
2022/06/29 16:35:14;;;;;;;3.63;1.63;;;;;;;;;;6202599;28;20237;-72
2022/06/29 16:38:35;;;;;;;1.50;1.40;;;;;;;;;;6205581;28;20229;-74
2022/06/29 16:41:57;;;;;;;1.20;1.10;;;;;;;;;;6207185;28;20241;-73
2022/06/29 16:45:17;;;;;;;4.22;1.95;;;;;;;;;;6204580;28;20240;-73
2022/06/29 16:48:38;;;;;;;4.05;2.30;;;;;;;;;;6200164;28;20372;-73
2022/06/29 16:52:00;;;;;;;2.13;1.70;;;;;;;;;;6207562;28;20622;-74
2022/06/29 16:55:21;;;;;;;4.30;2.10;;;;;;;;;;6203120;28;20228;-75
2022/06/29 16:58:41;;;;;;;1.90;1.48;;;;;;;;;;6198870;28;20237;-73
2022/06/29 17:02:03;;;;;;;1.95;1.58;;;;;;;;;;6199722;28;21963;-73
2022/06/29 17:05:24;;;;;;;1.55;1.45;;;;;;;;;;6200795;28;20570;-73
2022/06/29 17:08:46;;;;;;;2.22;1.45;;;;;;;;;;6205810;28;20621;-73
2022/06/29 17:12:07;;;;;;;2.50;1.67;;;;;;;;;;6205047;28;20960;-73
2022/06/29 17:15:27;;;;;;;1.63;1.52;;;;;;;;;;6207664;28;20257;-72
2022/06/29 17:18:48;;;;;;;1.85;1.65;;;;;;;;;;6201119;28;20237;-73
2022/06/29 17:22:08;;;;;;;1.35;1.35;;;;;;;;;;6209099;28;20229;-73
2022/06/29 17:25:31;;;;;;;1.70;1.60;;;;;;;;;;6205319;28;21501;-73
2022/06/29 17:28:52;;;;;;;1.70;1.38;;;;;;;;;;6206894;28;20257;-73
2022/06/29 17:32:13;;;;;;;2.60;1.77;;;;;;;;;;6433158;22;1234579;-72
2022/06/29 17:35:33;;;;;;;2.35;2.15;;;;;;;;;;6199573;28;20225;-71
2022/06/29 17:38:54;;;;;;;2.92;1.70;;;;;;;;;;6210890;28;20229;-72
2022/06/29 17:42:16;;;;;;;1.83;1.73;;;;;;;;;;6202271;28;20225;-72
2022/06/29 17:45:36;;;;;;;3.90;2.40;;;;;;;;;;6198047;28;20260;-74
2022/06/29 17:49:00;;;;;;;3.58;1.77;;;;;;;;;;6200970;28;20233;-74
2022/06/29 17:52:20;;;;;;;2.95;1.85;;;;;;;;;;6200283;28;20254;-75
2022/06/29 17:55:41;;;;;;;6.38;1.60;;;;;;;;;;6199414;28;20244;-74
2022/06/29 17:59:03;;;;;;;3.20;2.47;;;;;;;;;;6200852;28;20229;-73
2022/06/29 18:02:24;;;;;;;2.13;1.88;;;;;;;;;;6190376;28;20480;-72
2022/06/29 18:05:45;;;;;;;2.80;1.70;;;;;;;;;;6198968;28;20221;-71
2022/06/29 18:09:05;;;;;;;2.83;1.70;;;;;;;;;;6198565;28;20528;-72
2022/06/29 18:12:26;;;;;;;5.40;1.90;;;;;;;;;;6210387;28;20240;-72
2022/06/29 18:15:48;;;;;;;3.67;1.67;;;;;;;;;;6209031;28;20233;-73
2022/06/29 18:19:08;;;;;;;3.83;2.22;;;;;;;;;;6209941;28;20229;-72
2022/06/29 18:22:31;;;;;;;6.45;2.25;;;;;;;;;;6190981;28;20304;-73
2022/06/29 18:25:51;;;;;;;2.22;1.40;;;;;;;;;;6208142;28;20229;-72
2022/06/29 18:29:12;;;;;;;4.55;1.90;;;;;;;;;;6204605;28;20217;-72
2022/06/29 18:32:33;;;;;;;4.00;1.98;;;;;;;;;;6191179;28;20261;-73
2022/06/29 18:35:54;;;;;;;1.50;1.40;;;;;;;;;;6192551;28;20237;-72
2022/06/29 18:39:14;;;;;;;3.05;2.13;;;;;;;;;;6193333;28;20230;-72
2022/06/29 18:42:35;;;;;;;2.65;1.77;;;;;;;;;;6189854;28;20222;-71
2022/06/29 18:45:56;;;;;;;2.72;1.90;;;;;;;;;;6194350;28;20321;-72
2022/06/29 18:49:17;;;;;;;5.60;1.85;;;;;;;;;;6188162;28;20312;-71
2022/06/29 18:52:38;;;;;;;1.73;1.58;;;;;;;;;;6184200;28;20230;-71
2022/06/29 18:55:59;;;;;;;2.47;1.70;;;;;;;;;;6183170;28;20371;-71
2022/06/29 18:59:19;;;;;;;2.15;2.00;;;;;;;;;;6183828;28;20234;-73
2022/06/29 19:02:40;;;;;;;3.35;1.60;;;;;;;;;;6193542;28;20222;-72
2022/06/29 19:06:02;;;;;;;1.80;1.70;;;;;;;;;;6187437;28;20505;-72
2022/06/29 19:09:22;;;;;;;2.03;1.52;;;;;;;;;;6170456;28;20909;-73
2022/06/29 19:12:43;;;;;;;2.63;2.03;;;;;;;;;;6183981;28;20234;-73
2022/06/29 19:16:04;;;;;;;1.42;1.33;;;;;;;;;;6183982;28;20234;-72
2022/06/29 19:19:27;;;;;;;2.58;1.35;;;;;;;;;;6177251;28;20678;-71
2022/06/29 19:22:49;;;;;;;3.30;1.90;;;;;;;;;;6181995;28;22951;-72
2022/06/29 19:26:09;;;;;;;1.63;1.40;;;;;;;;;;6182796;28;20233;-72
2022/06/29 19:29:30;;;;;;;5.50;1.42;;;;;;;;;;6179797;28;20226;-72
2022/06/29 19:32:50;;;;;;;2.78;2.42;;;;;;;;;;6180486;28;20233;-71
2022/06/29 19:36:11;;;;;;;1.70;1.38;;;;;;;;;;6181380;28;20237;-71
2022/06/29 19:39:33;;;;;;;5.47;2.10;;;;;;;;;;6175200;28;20256;-71
2022/06/29 19:42:54;;;;;;;1.60;1.50;;;;;;;;;;6174017;28;20241;-71
2022/06/29 19:46:14;;;;;;;1.63;1.50;;;;;;;;;;6174034;28;20376;-71
2022/06/29 19:49:35;;;;;;;2.05;1.42;;;;;;;;;;6164887;28;20230;-72
2022/06/29 19:52:56;;;;;;;6.05;2.13;;;;;;;;;;6178281;28;20605;-72
2022/06/29 19:56:18;;;;;;;2.45;1.50;;;;;;;;;;6175196;28;20253;-73
2022/06/29 19:59:38;;;;;;;1.98;1.58;;;;;;;;;;6183553;28;20226;-72
2022/06/29 20:02:59;;;;;;;3.90;2.45;;;;;;;;;;6174394;28;20678;-71
2022/06/29 20:06:20;;;;;;;4.05;1.73;;;;;;;;;;6170668;28;20320;-71
2022/06/29 20:09:41;;;;;;;1.65;1.40;;;;;;;;;;6179249;28;20222;-70
2022/06/29 20:13:03;;;;;;;1.92;1.65;;;;;;;;;;6175439;28;20329;-71
2022/06/29 20:16:23;;;;;;;1.77;1.50;;;;;;;;;;6175267;28;20546;-72
2022/06/29 20:19:44;;;;;;;2.00;1.30;;;;;;;;;;6168489;28;20241;-71
2022/06/29 20:23:06;;;;;;;2.65;1.67;;;;;;;;;;6169696;28;20234;-72
2022/06/29 20:26:29;;;;;;;2.90;1.50;;;;;;;;;;6173923;28;20234;-71
2022/06/29 20:29:51;;;;;;;1.60;1.50;;;;;;;;;;6163877;28;20237;-70
2022/06/29 20:33:12;;;;;;;1.60;1.50;;;;;;;;;;6175756;28;20845;-72
2022/06/29 20:36:32;;;;;;;1.60;1.42;;;;;;;;;;6175030;28;20238;-72
2022/06/29 20:39:53;;;;;;;1.60;1.50;;;;;;;;;;6176394;28;20309;-73
2022/06/29 20:45:20;;;;;;;3.35;2.65;;;;;;;;;;6175082;28;20579;-71
2022/06/29 20:46:57;;;;;;;1.70;1.60;;;;;;;;;;6174415;28;20595;-73
2022/06/29 20:50:17;;;;;;;1.50;1.30;;;;;;;;;;6173010;28;20321;-72
2022/06/29 20:53:38;;;;;;;4.20;2.35;;;;;;;;;;6170760;28;20603;-72
2022/06/29 20:56:59;;;;;;;2.78;1.90;;;;;;;;;;6169970;28;20320;-72